Time;durP1;ratioP1;P1;durP2;ratioP2;P2;SDS_P1;SDS_P2;PMS_P1;PMS_P2;Temp;Humidity;BMP_temperature;BMP_pressure;BME280_temperature;BME280_humidity;BME280_pressure;Samples;Min_cycle;Max_cycle;Signal;HPM_P1;HPM_P2
2023/07/02 00:03:15;;;;;;;5.00;4.60;;;16.60;99.90;;;17.14;100.00;97335.41;10364611;28;20242;-65
2023/07/02 00:08:20;;;;;;;5.68;5.20;;;16.50;99.90;;;17.22;100.00;97334.75;10364400;28;20311;-65
2023/07/02 00:13:23;;;;;;;6.32;5.35;;;16.60;99.90;;;17.19;100.00;97326.94;10364604;28;20313;-65
2023/07/02 00:18:28;;;;;;;5.88;5.43;;;16.60;99.90;;;17.06;100.00;97330.97;10364503;28;20651;-65
2023/07/02 00:23:33;;;;;;;5.47;4.97;;;16.50;99.90;;;17.00;100.00;97337.72;10362556;28;20234;-67
2023/07/02 00:28:36;;;;;;;5.85;5.28;;;16.40;99.90;;;16.95;100.00;97342.75;10363566;28;20230;-66
2023/07/02 00:33:39;;;;;;;6.60;6.00;;;16.30;99.90;;;16.86;100.00;97342.53;10365347;28;20234;-67
2023/07/02 00:38:46;;;;;;;5.60;5.18;;;16.30;99.90;;;16.94;100.00;97348.75;10362636;28;20245;-67
2023/07/02 00:43:49;;;;;;;6.45;5.95;;;16.30;99.90;;;16.95;100.00;97358.25;10361796;28;20226;-66
2023/07/02 00:48:55;;;;;;;6.90;6.30;;;16.30;99.90;;;17.01;100.00;97357.50;10361814;28;20228;-67
2023/07/02 00:54:00;;;;;;;6.95;6.40;;;16.30;99.90;;;17.00;100.00;97355.78;10363496;28;20284;-66
2023/07/02 00:59:03;;;;;;;5.97;5.47;;;16.40;99.90;;;16.98;100.00;97355.72;10364012;28;20227;-66
2023/07/02 01:04:09;;;;;;;6.50;6.00;;;16.30;99.90;;;16.91;100.00;97356.41;10363856;28;20621;-67
2023/07/02 01:09:13;;;;;;;6.57;6.00;;;16.30;99.90;;;16.77;100.00;97352.63;10360774;28;20241;-66
2023/07/02 01:14:22;;;;;;;6.68;6.07;;;16.10;99.90;;;16.84;100.00;97359.69;10361956;28;20233;-66
2023/07/02 01:19:43;;;;;;;6.43;5.82;;;16.10;99.90;;;16.80;100.00;97358.75;10361638;28;20709;-67
2023/07/02 01:24:47;;;;;;;6.60;6.10;;;16.10;99.90;;;16.82;100.00;97358.78;10366745;28;20244;-67
2023/07/02 01:29:53;;;;;;;6.47;5.97;;;16.20;99.90;;;16.79;100.00;97362.16;10361702;28;20218;-66
2023/07/02 01:34:58;;;;;;;6.05;5.55;;;16.10;99.90;;;16.77;100.00;97358.69;10358689;28;20231;-67
2023/07/02 01:40:01;;;;;;;8.23;6.25;;;16.10;99.90;;;16.83;100.00;97352.78;10359609;28;20230;-67
2023/07/02 01:45:07;;;;;;;6.93;6.32;;;16.20;99.90;;;16.81;100.00;97355.31;10362706;28;20230;-66
2023/07/02 01:50:12;;;;;;;7.20;6.50;;;16.20;99.90;;;16.88;100.00;97356.34;10361516;28;20230;-66
2023/07/02 01:55:17;;;;;;;6.80;6.20;;;16.20;99.90;;;16.89;100.00;97369.28;10358288;28;20234;-66
2023/07/02 02:00:20;;;;;;;6.38;5.95;;;16.20;99.90;;;16.83;100.00;97374.31;10359170;28;20226;-67
2023/07/02 02:05:25;;;;;;;7.72;6.90;;;16.10;99.90;;;16.85;100.00;97379.50;10360817;28;20222;-67
2023/07/02 02:15:38;;;;;;;6.63;6.03;;;16.10;99.90;;;16.81;100.00;97359.63;10313541;28;20725;-67
2023/07/02 02:20:43;;;;;;;6.80;6.20;;;16.20;99.90;;;16.69;100.00;97355.00;10316487;28;20230;-67
2023/07/02 02:25:46;;;;;;;6.35;5.82;;;16.00;99.90;;;16.65;100.00;97378.97;10314092;28;20575;-67
2023/07/02 02:30:49;;;;;;;5.90;5.32;;;15.90;99.90;;;16.60;100.00;97362.50;10316925;28;20318;-67
2023/07/02 02:35:54;;;;;;;5.85;5.45;;;15.90;99.90;;;16.42;100.00;97375.78;10317769;28;20623;-67
2023/07/02 02:40:57;;;;;;;6.60;6.05;;;15.80;99.90;;;16.37;100.00;97377.41;10306634;28;20241;-68
2023/07/02 02:46:00;;;;;;;6.50;5.90;;;15.60;99.90;;;16.28;100.00;97366.81;10317956;28;20246;-67
2023/07/02 02:51:05;;;;;;;6.72;6.15;;;15.60;99.90;;;16.24;100.00;97377.91;10318106;28;20617;-68
2023/07/02 02:56:08;;;;;;;6.80;6.30;;;15.50;99.90;;;16.23;100.00;97371.00;10314576;28;20581;-68
2023/07/02 03:01:11;;;;;;;6.72;6.18;;;15.50;99.90;;;16.24;100.00;97371.03;10308265;28;20269;-68
2023/07/02 03:06:16;;;;;;;6.70;6.07;;;15.50;99.90;;;16.29;100.00;97366.88;10317048;28;20313;-67
2023/07/02 03:11:19;;;;;;;6.93;6.22;;;15.50;99.90;;;16.27;100.00;97375.41;10313313;28;20624;-67
2023/07/02 03:16:22;;;;;;;6.13;5.63;;;15.50;99.90;;;16.26;100.00;97377.09;10323483;28;20293;-69
2023/07/02 03:21:29;;;;;;;6.28;5.70;;;15.50;99.90;;;16.21;100.00;97376.09;10323197;28;20246;-67
2023/07/02 03:26:32;;;;;;;6.07;5.57;;;15.50;99.90;;;16.20;100.00;97377.81;10319775;28;20223;-68
2023/07/02 03:31:36;;;;;;;6.20;5.70;;;15.50;99.90;;;16.24;100.00;97383.91;10323937;28;20231;-67
2023/07/02 03:36:40;;;;;;;5.43;5.03;;;15.50;99.90;;;16.31;100.00;97388.44;10318512;28;20227;-67
2023/07/02 03:41:43;;;;;;;6.15;5.65;;;15.60;99.90;;;16.33;100.00;97389.31;10316630;28;20707;-67
2023/07/02 03:46:46;;;;;;;6.07;5.43;;;15.60;99.90;;;16.39;100.00;97391.19;10317141;28;20722;-66
2023/07/02 03:51:52;;;;;;;6.10;5.60;;;15.60;99.90;;;16.39;100.00;97393.75;10322631;28;20231;-67
2023/07/02 03:56:55;;;;;;;7.18;5.97;;;15.70;99.90;;;16.43;100.00;97403.34;10316147;28;20231;-66
2023/07/02 04:01:58;;;;;;;7.65;6.20;;;15.70;99.90;;;16.41;100.00;97416.19;10307038;28;20770;-67
2023/07/02 04:07:03;;;;;;;6.57;6.07;;;15.80;99.90;;;16.42;100.00;97437.69;10311551;28;20223;-69
2023/07/02 04:12:08;;;;;;;8.82;6.85;;;15.80;99.90;;;16.41;100.00;97448.88;10316634;28;20230;-67
2023/07/02 04:17:11;;;;;;;7.53;6.88;;;15.80;99.90;;;16.16;100.00;97455.91;10319023;28;20234;-69
2023/07/02 04:22:15;;;;;;;7.45;6.75;;;15.50;99.90;;;16.08;100.00;97461.66;10314555;28;20230;-69
2023/07/02 04:27:18;;;;;;;8.55;7.50;;;15.40;99.90;;;15.87;100.00;97479.97;10309746;28;20243;-69
2023/07/02 04:32:42;;;;;;;8.18;7.32;;;15.30;99.90;;;15.82;100.00;97472.09;10312278;28;20227;-70
2023/07/02 04:37:47;;;;;;;9.65;8.60;;;15.20;99.90;;;15.85;100.00;97486.78;10318300;28;20235;-69
2023/07/02 04:42:57;;;;;;;10.40;8.82;;;15.20;99.90;;;15.87;100.00;97479.97;10310440;28;20731;-67
2023/07/02 04:48:00;;;;;;;11.63;8.75;;;15.20;99.90;;;15.92;100.00;97486.13;10304591;28;20774;-68
2023/07/02 04:53:05;;;;;;;10.85;8.57;;;15.30;99.90;;;16.02;100.00;97489.84;10301999;28;20818;-68
2023/07/02 04:58:08;;;;;;;11.60;9.10;;;15.30;99.90;;;16.12;100.00;97490.19;10312222;28;20235;-67
2023/07/02 05:03:11;;;;;;;10.75;9.65;;;15.40;99.90;;;16.05;100.00;97490.81;10316473;28;20234;-69
2023/07/02 05:08:16;;;;;;;10.90;9.65;;;15.40;99.90;;;16.06;100.00;97500.31;10306768;28;20322;-69
2023/07/02 05:13:20;;;;;;;13.70;10.73;;;15.40;99.90;;;16.00;100.00;97500.13;10312784;28;20262;-69
2023/07/02 05:18:23;;;;;;;13.07;10.55;;;15.30;99.90;;;15.99;100.00;97507.00;10315487;28;20234;-68
2023/07/02 05:23:27;;;;;;;11.95;10.27;;;15.30;99.90;;;16.17;100.00;97504.09;10306731;28;20241;-69
2023/07/02 05:28:31;;;;;;;12.68;10.40;;;15.50;99.90;;;16.40;100.00;97512.50;10311096;28;20219;-69
2023/07/02 05:33:34;;;;;;;15.35;10.70;;;15.70;99.90;;;16.59;100.00;97519.03;10304191;28;20634;-68
2023/07/02 05:38:38;;;;;;;11.88;10.05;;;16.00;99.90;;;16.73;100.00;97515.97;10304293;28;20232;-69
2023/07/02 05:43:41;;;;;;;11.40;9.10;;;16.00;99.90;;;16.83;100.00;97518.88;10306244;28;20353;-68
2023/07/02 05:48:44;;;;;;;11.80;9.18;;;16.20;99.90;;;17.02;100.00;97530.53;10302051;28;20571;-67
2023/07/02 05:53:49;;;;;;;11.80;8.90;;;16.30;99.90;;;17.14;100.00;97530.00;10307395;28;20238;-71
2023/07/02 05:58:52;;;;;;;11.35;8.63;;;16.40;99.90;;;17.52;100.00;97538.72;10306211;28;20850;-69
2023/07/02 06:03:56;;;;;;;7.45;6.70;;;16.80;99.90;;;19.15;100.00;97538.78;10301108;28;20235;-68
2023/07/02 06:09:00;;;;;;;9.60;6.93;;;18.40;99.90;;;20.03;97.18;97536.81;10303744;28;20222;-69
2023/07/02 06:14:03;;;;;;;7.03;5.68;;;19.10;99.90;;;20.46;96.77;97542.59;10311923;28;20806;-70
2023/07/02 06:19:06;;;;;;;6.70;5.68;;;19.30;99.90;;;20.89;90.69;97544.00;10306174;28;20479;-70
2023/07/02 06:24:11;;;;;;;7.55;5.90;;;19.60;99.90;;;21.00;85.53;97538.91;10314894;28;20778;-70
2023/07/02 06:29:14;;;;;;;6.68;4.75;;;19.70;99.90;;;21.68;87.01;97536.97;10312858;28;20717;-68
2023/07/02 06:34:17;;;;;;;6.45;5.18;;;20.00;99.90;;;22.14;77.66;97524.28;10315226;28;20238;-67
2023/07/02 06:39:22;;;;;;;5.45;4.93;;;20.40;99.90;;;22.65;73.61;97535.84;10315977;28;20662;-68
2023/07/02 06:44:25;;;;;;;7.95;5.05;;;20.80;99.90;;;23.16;73.15;97545.59;10315561;28;20227;-68
2023/07/02 06:49:28;;;;;;;6.07;5.47;;;21.40;99.90;;;23.52;65.77;97541.31;10315812;28;20736;-70
2023/07/02 06:54:32;;;;;;;8.40;5.75;;;21.50;99.90;;;23.77;66.78;97549.16;10315203;28;20234;-68
2023/07/02 06:59:35;;;;;;;6.95;6.22;;;21.80;99.90;;;23.03;67.00;97548.16;10322453;28;20230;-69
2023/07/02 07:04:38;;;;;;;8.90;6.70;;;21.00;99.90;;;22.74;69.40;97555.88;10316872;28;20231;-69
2023/07/02 07:09:43;;;;;;;10.00;7.60;;;21.00;99.90;;;22.46;69.93;97546.19;10318600;28;20314;-69
2023/07/02 07:14:46;;;;;;;10.57;6.85;;;21.00;99.90;;;23.28;64.79;97555.19;10321970;28;20235;-68
2023/07/02 07:19:49;;;;;;;11.95;7.88;;;21.60;99.90;;;23.67;62.52;97550.88;10317785;28;20241;-67
2023/07/02 07:24:53;;;;;;;13.02;8.85;;;21.80;99.90;;;22.58;62.68;97560.16;10310422;28;20664;-68
2023/07/02 07:29:56;;;;;;;12.50;9.20;;;20.80;99.90;;;21.78;68.21;97552.69;10311382;28;20981;-68
2023/07/02 07:35:00;;;;;;;14.55;10.75;;;20.10;99.90;;;21.32;64.84;97569.59;10307824;28;20730;-69
2023/07/02 07:40:06;;;;;;;14.27;9.77;;;19.70;99.90;;;21.01;68.22;97569.25;10308684;28;20604;-69
2023/07/02 07:45:12;;;;;;;11.82;9.88;;;19.50;99.90;;;21.22;69.28;97567.72;10311180;28;20238;-68
2023/07/02 07:50:15;;;;;;;13.10;10.48;;;19.80;99.90;;;21.80;67.31;97563.97;10311938;28;20282;-69
2023/07/02 07:55:19;;;;;;;14.20;10.43;;;20.30;99.90;;;21.80;63.97;97565.69;10318126;28;20227;-68
2023/07/02 08:00:24;;;;;;;13.95;10.18;;;20.60;99.90;;;22.14;64.25;97558.13;10317991;28;20713;-67
2023/07/02 08:05:27;;;;;;;13.60;10.40;;;20.60;99.90;;;22.55;62.08;97555.78;10323742;28;20285;-68
2023/07/02 08:10:32;;;;;;;15.45;11.82;;;21.00;99.90;;;22.21;60.92;97560.81;10319954;28;20223;-68
2023/07/02 08:15:35;;;;;;;15.90;11.35;;;20.90;99.90;;;22.30;58.72;97572.16;10372654;23;20854;-67
2023/07/02 08:20:38;;;;;;;14.13;11.27;;;20.90;99.90;;;22.33;60.80;97564.34;10356331;28;20230;-67
2023/07/02 08:25:43;;;;;;;13.65;10.30;;;21.10;99.90;;;23.83;55.70;97563.06;10358846;28;20346;-67
2023/07/02 08:30:46;;;;;;;13.27;11.75;;;22.60;99.90;;;24.45;53.41;97569.13;10362598;28;20226;-65
2023/07/02 08:35:49;;;;;;;14.05;10.85;;;23.50;99.90;;;24.35;52.63;97569.09;10361531;28;20644;-65
2023/07/02 08:40:54;;;;;;;22.90;15.75;;;23.30;99.90;;;24.58;53.03;97569.06;10360672;28;20353;-67
2023/07/02 08:45:58;;;;;;;22.60;15.95;;;23.40;99.90;;;24.23;50.82;97565.63;10359941;28;20226;-67
2023/07/02 08:51:01;;;;;;;37.75;25.70;;;22.90;98.90;;;24.18;51.21;97567.41;10361118;28;20651;-67
2023/07/02 08:56:05;;;;;;;40.20;26.95;;;22.90;99.00;;;24.55;51.07;97567.34;10361442;28;20252;-66
2023/07/02 09:01:11;;;;;;;22.20;16.80;;;23.50;98.10;;;24.38;50.62;97563.88;10362017;28;20245;-66
2023/07/02 09:06:18;;;;;;;25.88;19.27;;;23.40;98.30;;;24.91;48.89;97562.84;10356195;28;20222;-66
2023/07/02 09:11:22;;;;;;;22.20;17.00;;;24.10;96.00;;;25.16;46.76;97572.34;10361085;28;20571;-66
2023/07/02 09:16:28;;;;;;;21.30;15.85;;;24.40;94.50;;;25.27;46.58;97563.56;10348572;28;20590;-68
2023/07/02 09:21:44;;;;;;;22.30;15.82;;;24.60;93.80;;;25.53;46.14;97566.88;10346019;28;20227;-66
2023/07/02 09:26:51;;;;;;;17.80;13.98;;;24.80;93.30;;;25.17;45.04;97568.84;10349179;28;20218;-66
2023/07/02 09:31:54;;;;;;;20.10;14.55;;;24.60;92.00;;;25.10;45.17;97551.44;10346175;28;20242;-66
2023/07/02 09:37:02;;;;;;;17.77;13.77;;;24.30;92.40;;;24.86;46.16;97543.69;10342078;28;20760;-65
2023/07/02 09:42:10;;;;;;;17.88;14.07;;;24.10;92.60;;;25.07;44.99;97554.06;10346931;28;20241;-65
2023/07/02 09:47:15;;;;;;;18.50;13.93;;;24.20;91.80;;;25.20;43.42;97556.63;10347080;28;20260;-65
2023/07/02 09:52:19;;;;;;;17.40;13.60;;;24.70;90.30;;;25.10;44.12;97554.03;10349459;28;20233;-65
2023/07/02 09:57:23;;;;;;;16.45;12.65;;;24.40;90.60;;;25.35;44.50;97551.28;10349548;28;20317;-65
2023/07/02 10:02:26;;;;;;;14.88;12.45;;;24.60;90.60;;;25.52;42.61;97546.81;10351039;28;20241;-65
2023/07/02 10:07:33;;;;;;;16.83;13.05;;;24.80;88.70;;;25.52;41.86;97525.84;10346204;28;20237;-66
2023/07/02 10:12:47;;;;;;;13.90;12.35;;;24.70;87.70;;;25.36;41.09;97526.88;10345527;28;20240;-66
2023/07/02 10:17:56;;;;;;;16.33;12.65;;;24.70;86.70;;;25.20;43.07;97538.31;10344902;28;20238;-66
2023/07/02 10:23:01;;;;;;;15.60;12.65;;;24.40;89.30;;;25.02;42.25;97534.91;10348055;28;20234;-66
2023/07/02 10:28:19;;;;;;;16.15;12.48;;;24.00;87.90;;;24.99;42.91;97536.66;10340429;28;20712;-66
2023/07/02 10:33:23;;;;;;;13.70;12.25;;;24.30;88.30;;;25.32;42.85;97535.59;10341455;28;20233;-66
2023/07/02 10:38:27;;;;;;;15.48;12.77;;;24.60;87.60;;;25.38;41.68;97540.78;10338047;28;20747;-66
2023/07/02 10:43:32;;;;;;;17.88;13.98;;;24.60;86.40;;;25.32;42.27;97531.25;10348930;28;20281;-66
2023/07/02 10:48:35;;;;;;;15.13;12.40;;;24.60;87.00;;;25.08;42.27;97532.25;10368229;28;20590;-66
2023/07/02 10:53:39;;;;;;;14.27;12.07;;;24.30;86.90;;;25.12;44.03;97523.53;10394299;28;20610;-65
2023/07/02 10:58:44;;;;;;;16.35;13.52;;;24.40;89.20;;;25.27;42.35;97522.56;10394286;28;20225;-65
2023/07/02 11:03:57;;;;;;;15.13;12.57;;;24.50;87.20;;;25.22;41.69;97534.81;10391349;28;20700;-66
2023/07/02 11:09:03;;;;;;;17.20;13.02;;;24.50;86.00;;;25.19;41.62;97533.97;10384690;28;20307;-66
2023/07/02 11:14:08;;;;;;;14.23;12.73;;;24.40;85.70;;;25.22;42.56;97529.59;10387989;28;20238;-65
2023/07/02 11:19:11;;;;;;;14.70;12.80;;;24.30;87.30;;;25.14;42.43;97524.38;10384954;28;20264;-65
2023/07/02 11:24:14;;;;;;;15.85;13.52;;;24.30;87.00;;;25.05;42.85;97518.31;10377371;28;20586;-65
2023/07/02 11:29:20;;;;;;;18.10;14.45;;;24.10;87.50;;;24.79;43.58;97523.69;10378596;28;20225;-65
2023/07/02 11:34:24;;;;;;;16.90;14.32;;;23.80;89.10;;;24.81;44.31;97521.91;10389661;28;20577;-66
2023/07/02 11:39:28;;;;;;;14.57;12.95;;;23.80;89.00;;;24.84;43.66;97517.56;10392691;28;20226;-65
2023/07/02 11:44:32;;;;;;;17.08;13.98;;;24.00;88.40;;;25.02;42.61;97508.75;10396503;28;20237;-66
2023/07/02 11:49:35;;;;;;;17.77;14.52;;;24.20;86.30;;;25.27;42.13;97517.34;10396584;28;20225;-65
2023/07/02 11:54:39;;;;;;;15.82;14.23;;;24.30;86.60;;;25.14;41.29;97515.69;10396006;28;20247;-66
2023/07/02 11:59:43;;;;;;;17.63;14.15;;;24.30;85.40;;;25.23;41.67;97506.91;10389829;28;20217;-68
2023/07/02 12:04:47;;;;;;;16.60;14.68;;;24.40;85.70;;;25.38;41.25;97493.69;10388916;28;20233;-66
2023/07/02 12:09:50;;;;;;;15.75;14.07;;;24.90;84.10;;;25.46;40.65;97499.75;10398981;28;20606;-66
2023/07/02 12:14:54;;;;;;;16.02;14.18;;;24.60;83.30;;;25.27;40.57;97490.31;10391579;28;20237;-66
2023/07/02 12:19:58;;;;;;;16.08;14.40;;;24.40;83.80;;;25.05;40.77;97490.41;10397550;28;20241;-66
2023/07/02 12:25:01;;;;;;;18.08;13.43;;;24.30;82.60;;;25.13;40.10;97493.00;10395704;28;20244;-66
2023/07/02 12:30:08;;;;;;;17.52;14.80;;;24.40;82.40;;;25.26;40.08;97485.94;10390605;28;20225;-67
2023/07/02 12:35:12;;;;;;;17.25;14.63;;;24.50;81.60;;;25.53;40.18;97496.22;10391552;28;20652;-65
2023/07/02 12:40:15;;;;;;;17.77;14.18;;;24.70;82.20;;;25.71;39.67;97491.69;10392288;28;20320;-66
2023/07/02 12:45:20;;;;;;;17.48;14.95;;;24.80;81.40;;;25.47;39.50;97482.28;10394279;28;20240;-66
2023/07/02 12:50:24;;;;;;;15.77;14.07;;;24.70;81.40;;;25.56;39.95;97492.69;10385447;28;20281;-66
2023/07/02 12:55:27;;;;;;;16.05;14.18;;;24.60;81.70;;;25.26;41.07;97488.56;10391012;28;20621;-66
2023/07/02 13:00:31;;;;;;;16.08;13.15;;;24.50;84.00;;;25.55;38.70;97481.38;10386817;28;20217;-66
2023/07/02 13:05:35;;;;;;;15.68;13.90;;;24.50;80.30;;;25.82;39.61;97484.59;10396218;28;20307;-66
2023/07/02 13:10:38;;;;;;;16.70;13.70;;;24.90;81.60;;;25.61;39.74;97486.53;10386511;28;20229;-67
2023/07/02 13:15:46;;;;;;;16.00;14.30;;;24.80;81.30;;;25.55;40.02;97483.97;10388464;28;20321;-66
2023/07/02 13:20:50;;;;;;;20.02;14.68;;;24.60;82.10;;;25.41;39.77;97483.22;10398336;28;20225;-66
2023/07/02 13:25:53;;;;;;;16.95;14.30;;;24.60;81.30;;;25.55;40.17;97491.84;10399285;28;21228;-66
2023/07/02 13:30:57;;;;;;;16.75;14.75;;;24.60;81.00;;;25.62;38.36;97483.03;10400982;28;20224;-66
2023/07/02 13:36:00;;;;;;;16.40;13.65;;;24.90;78.00;;;25.59;38.46;97474.34;10402019;28;20217;-66
2023/07/02 13:41:03;;;;;;;17.67;14.57;;;24.70;79.20;;;25.76;38.44;97484.66;10395780;28;20226;-65
2023/07/02 13:46:08;;;;;;;17.10;14.57;;;25.00;78.70;;;25.32;37.13;97485.91;10397156;28;20229;-66
2023/07/02 13:51:11;;;;;;;17.30;13.73;;;24.60;76.40;;;25.72;38.30;97478.56;10399453;28;20225;-66
2023/07/02 13:56:14;;;;;;;17.10;14.55;;;24.80;78.40;;;25.86;37.71;97460.13;10397218;28;20229;-68
2023/07/02 14:01:19;;;;;;;17.08;15.25;;;25.00;77.30;;;25.98;36.99;97475.75;10396649;28;20229;-66
2023/07/02 14:06:22;;;;;;;16.92;14.35;;;25.20;76.10;;;25.57;37.84;97473.47;10396599;28;20335;-65
2023/07/02 14:11:29;;;;;;;16.27;14.57;;;24.80;76.80;;;25.42;38.11;97473.63;10394243;28;20236;-69
2023/07/02 14:16:34;;;;;;;15.68;14.05;;;24.70;76.80;;;25.67;37.11;97474.25;10398416;28;20322;-66
2023/07/02 14:21:38;;;;;;;17.55;14.52;;;25.00;75.10;;;25.63;36.87;97478.66;10386457;28;20225;-65
2023/07/02 14:26:41;;;;;;;17.15;14.38;;;24.90;74.90;;;25.71;37.74;97475.97;10389927;28;20229;-65
2023/07/02 14:31:45;;;;;;;16.13;14.43;;;24.90;75.70;;;25.60;36.28;97463.84;10397901;28;20229;-66
2023/07/02 14:36:49;;;;;;;17.33;15.45;;;24.70;74.00;;;25.66;37.65;97467.28;10391919;28;20229;-67
2023/07/02 14:41:52;;;;;;;18.55;14.25;;;24.80;76.10;;;25.67;35.03;97459.44;10387933;28;20221;-67
2023/07/02 14:46:56;;;;;;;17.10;14.65;;;24.90;71.70;;;25.92;35.50;97467.94;10379839;28;20726;-66
2023/07/02 14:51:59;;;;;;;18.15;15.55;;;25.10;73.00;;;25.59;36.52;97462.13;10382707;28;20236;-66
2023/07/02 14:57:03;;;;;;;18.20;15.15;;;24.80;73.90;;;25.81;36.23;97462.78;10364937;28;20221;-66
2023/07/02 15:02:08;;;;;;;16.88;14.93;;;25.10;73.80;;;25.73;36.49;97464.63;10377372;28;20236;-66
2023/07/02 15:07:11;;;;;;;19.80;15.48;;;24.90;73.80;;;25.62;36.59;97451.63;10375119;28;20230;-66
2023/07/02 15:12:14;;;;;;;17.02;14.10;;;24.80;74.70;;;25.83;37.19;97458.41;10386040;28;20236;-66
2023/07/02 15:17:19;;;;;;;17.63;15.50;;;25.00;74.50;;;25.82;35.48;97459.31;10396876;28;20546;-67
2023/07/02 15:22:22;;;;;;;17.65;14.98;;;25.00;73.10;;;25.84;36.03;97454.94;10397552;28;20237;-66
2023/07/02 15:27:25;;;;;;;18.70;16.38;;;25.00;73.40;;;26.02;36.45;97450.38;10395228;28;20248;-65
2023/07/02 15:32:29;;;;;;;16.27;14.55;;;25.20;73.70;;;25.93;35.34;97455.72;10387150;28;20232;-66
2023/07/02 15:37:33;;;;;;;15.90;14.15;;;25.00;72.10;;;25.84;36.12;97456.69;10390039;28;20322;-66
2023/07/02 15:42:36;;;;;;;17.77;14.55;;;24.90;73.30;;;25.81;34.94;97446.19;10389282;28;20225;-66
2023/07/02 15:47:40;;;;;;;19.25;14.98;;;24.80;71.50;;;25.66;36.71;97446.34;10389445;28;20236;-65
2023/07/02 15:52:43;;;;;;;15.60;13.80;;;24.80;74.00;;;25.65;37.40;97447.25;10392387;28;20249;-65
2023/07/02 15:57:47;;;;;;;17.50;14.20;;;24.70;75.80;;;25.51;35.95;97447.38;10389838;28;20236;-65
2023/07/02 16:02:52;;;;;;;16.63;14.18;;;24.70;73.80;;;25.57;36.54;97442.94;10387812;28;20606;-65
2023/07/02 16:07:55;;;;;;;16.38;14.68;;;24.70;73.60;;;25.54;36.16;97440.34;10386350;28;20766;-65
2023/07/02 16:12:58;;;;;;;16.13;14.40;;;24.70;73.20;;;25.39;35.73;97443.09;10383714;28;20240;-65
2023/07/02 16:18:03;;;;;;;17.65;14.45;;;24.60;72.50;;;25.49;36.32;97449.97;10384723;28;20225;-66
2023/07/02 16:23:09;;;;;;;15.73;13.65;;;24.60;73.70;;;25.63;37.37;97450.72;10371854;28;20698;-65
2023/07/02 16:28:12;;;;;;;16.77;14.55;;;24.70;75.50;;;25.91;37.35;97442.63;10381883;28;20233;-65
2023/07/02 16:33:18;;;;;;;16.88;14.45;;;24.90;74.70;;;25.93;35.75;97453.13;10390055;28;20605;-65
2023/07/02 16:38:21;;;;;;;16.17;14.15;;;24.90;73.00;;;25.53;36.20;97437.75;10381400;28;20226;-66
2023/07/02 16:43:26;;;;;;;17.13;14.48;;;24.60;73.10;;;25.38;36.41;97446.59;10389487;28;20228;-65
2023/07/02 16:48:31;;;;;;;17.20;14.73;;;24.40;73.70;;;25.11;37.10;97438.06;10387207;28;20221;-66
2023/07/02 16:53:35;;;;;;;16.30;14.07;;;24.30;74.20;;;25.20;37.22;97444.13;10390648;28;20261;-65
2023/07/02 16:58:38;;;;;;;16.77;15.02;;;24.30;74.00;;;25.33;37.11;97446.66;10380848;28;20308;-65
2023/07/02 17:03:46;;;;;;;16.00;14.30;;;24.40;74.40;;;25.30;36.96;97457.13;10391506;28;20642;-66
2023/07/02 17:09:21;;;;;;;18.38;15.00;;;24.50;74.40;;;25.09;37.23;97452.03;10377805;28;20594;-65
2023/07/02 17:14:27;;;;;;;17.40;14.38;;;24.20;74.20;;;24.93;38.02;97451.28;10381733;28;20225;-65
2023/07/02 17:19:35;;;;;;;17.30;14.75;;;24.00;74.60;;;24.92;37.39;97459.97;10377910;28;20601;-65
2023/07/02 17:24:40;;;;;;;15.68;14.07;;;24.00;74.20;;;24.87;38.08;97462.63;10378126;28;20876;-65
2023/07/02 17:29:49;;;;;;;18.08;14.70;;;23.90;75.00;;;24.69;38.00;97466.19;10387909;28;20244;-66
2023/07/02 17:34:54;;;;;;;16.52;14.38;;;23.70;75.50;;;24.57;39.01;97455.81;10377802;28;20238;-66
2023/07/02 17:39:58;;;;;;;15.50;13.68;;;23.60;77.90;;;24.39;38.81;97455.88;10384156;28;21178;-66
2023/07/02 17:45:02;;;;;;;16.50;14.63;;;23.40;77.30;;;24.31;38.86;97460.28;10381987;28;20230;-67
2023/07/02 17:50:07;;;;;;;15.35;13.73;;;23.30;76.30;;;24.24;39.61;97462.91;10381295;28;20249;-66
2023/07/02 17:55:11;;;;;;;17.27;14.88;;;23.30;77.10;;;24.20;39.18;97462.91;10383241;28;20986;-66
2023/07/02 18:00:16;;;;;;;16.75;13.85;;;23.30;76.40;;;24.10;39.58;97464.69;10381727;28;20482;-66
2023/07/02 18:05:21;;;;;;;16.38;14.25;;;23.10;77.60;;;23.97;40.12;97468.19;10382863;28;20226;-66
2023/07/02 18:10:25;;;;;;;16.13;13.95;;;23.00;78.70;;;23.84;39.54;97464.78;10382369;28;20236;-67
2023/07/02 18:15:28;;;;;;;17.70;14.60;;;22.90;77.70;;;23.72;39.78;97468.28;10377461;28;20240;-66
2023/07/02 18:20:32;;;;;;;15.57;13.57;;;22.80;77.60;;;23.50;41.32;97466.50;10381907;28;20226;-66
2023/07/02 18:25:36;;;;;;;17.38;14.27;;;22.50;80.10;;;23.26;42.34;97475.19;10381326;28;20237;-66
2023/07/02 18:30:44;;;;;;;16.17;13.27;;;22.30;82.70;;;23.12;42.06;97483.00;10372611;28;20218;-66
2023/07/02 18:35:49;;;;;;;17.98;13.82;;;22.10;81.40;;;22.97;42.55;97480.38;10381436;28;20291;-66
2023/07/02 18:41:03;;;;;;;15.98;13.65;;;22.00;81.20;;;22.82;43.17;97482.03;10377852;28;20238;-66
2023/07/02 18:46:07;;;;;;;17.27;13.32;;;21.80;82.00;;;22.66;43.78;97486.38;10384810;28;20234;-66
2023/07/02 18:51:12;;;;;;;15.10;12.57;;;21.70;84.00;;;22.48;45.41;97484.53;10387143;28;20226;-66
2023/07/02 18:56:15;;;;;;;15.93;14.05;;;21.50;86.50;;;22.30;44.38;97492.28;10381922;28;20248;-66
2023/07/02 19:01:18;;;;;;;19.08;13.63;;;21.30;85.00;;;22.19;44.66;97493.97;10379542;28;20226;-66
2023/07/02 19:06:23;;;;;;;16.67;13.73;;;21.20;85.20;;;22.04;45.67;97495.59;10387395;28;20312;-66
2023/07/02 19:11:26;;;;;;;17.50;13.77;;;21.00;88.10;;;21.88;45.56;97498.94;10391001;28;20245;-66
2023/07/02 19:16:29;;;;;;;19.25;14.30;;;20.90;86.20;;;21.69;46.73;97507.47;10383948;28;20620;-66
2023/07/02 19:21:34;;;;;;;17.42;14.85;;;20.70;88.30;;;21.57;46.61;97513.47;10381870;28;20229;-66
2023/07/02 19:26:37;;;;;;;17.98;14.35;;;20.60;88.10;;;21.51;45.82;97513.41;10386861;28;20725;-66
2023/07/02 19:31:44;;;;;;;18.05;14.68;;;20.50;87.60;;;21.29;46.38;97521.03;10384024;28;20230;-66
2023/07/02 19:36:49;;;;;;;18.08;14.50;;;20.40;87.50;;;21.16;47.25;97532.16;10386329;28;20226;-66
2023/07/02 19:41:53;;;;;;;18.30;14.32;;;20.20;89.40;;;21.02;48.23;97537.19;10386507;28;20233;-66
2023/07/02 19:46:56;;;;;;;19.05;13.88;;;20.10;90.30;;;20.84;47.86;97550.00;10386892;28;20229;-66
2023/07/02 19:52:01;;;;;;;18.17;15.30;;;19.90;89.40;;;20.72;48.31;97553.34;10386369;28;20230;-66
2023/07/02 19:57:05;;;;;;;17.83;14.60;;;19.70;90.00;;;20.56;48.71;97554.84;10388340;28;20368;-67
2023/07/02 20:02:08;;;;;;;19.10;14.30;;;19.60;90.70;;;20.44;49.92;97565.06;10383254;28;20230;-67
2023/07/02 20:07:13;;;;;;;21.63;14.60;;;19.50;91.40;;;20.29;52.42;97570.91;10390472;28;20260;-65
2023/07/02 20:12:16;;;;;;;18.17;14.20;;;19.30;93.80;;;20.13;53.38;97577.59;10379426;28;20765;-66
2023/07/02 20:17:19;;;;;;;20.00;14.52;;;19.10;94.50;;;19.91;56.56;97583.31;10376532;28;20236;-65
2023/07/02 20:22:24;;;;;;;20.30;14.25;;;18.90;97.30;;;19.70;58.77;97589.91;10375986;28;20304;-65
2023/07/02 20:27:28;;;;;;;19.85;14.55;;;18.70;99.30;;;19.54;59.35;97596.53;10379574;28;20633;-66
2023/07/02 20:32:32;;;;;;;16.63;14.48;;;18.60;99.80;;;19.41;60.65;97607.50;10380994;28;20597;-66
2023/07/02 20:37:37;;;;;;;19.38;14.95;;;18.40;99.90;;;19.23;60.79;97613.22;10376911;28;20233;-65
2023/07/02 20:42:40;;;;;;;18.60;15.18;;;18.20;99.90;;;19.10;62.70;97616.41;10387463;28;20666;-66
2023/07/02 20:47:44;;;;;;;21.67;15.15;;;18.10;99.90;;;19.01;63.57;97621.44;10386690;28;20766;-66
2023/07/02 20:52:49;;;;;;;19.60;15.25;;;18.00;99.90;;;18.76;64.13;97628.69;10385371;28;20218;-66